Time;durP1;ratioP1;P1;durP2;ratioP2;P2;SDS_P1;SDS_P2;PMS_P1;PMS_P2;Temp;Humidity;BMP_temperature;BMP_pressure;BME280_temperature;BME280_humidity;BME280_pressure;Samples;Min_cycle;Max_cycle;Signal;HPM_P1;HPM_P2
2022/03/23 00:01:50;;;;;;;42.30;15.63;;;3.80;1.00;;;;;;4312667;28;656836;-64
2022/03/23 00:04:39;;;;;;;48.40;16.70;;;3.70;1.00;;;;;;4334941;28;658459;-65
2022/03/23 00:07:28;;;;;;;52.10;19.90;;;3.60;1.00;;;;;;4319263;28;656605;-64
2022/03/23 00:10:15;;;;;;;54.55;20.77;;;3.60;1.00;;;;;;4323295;28;656901;-64
2022/03/23 00:13:03;;;;;;;67.30;24.43;;;3.50;1.00;;;;;;4355602;28;657912;-64
2022/03/23 00:15:51;;;;;;;61.00;23.43;;;3.40;1.00;;;;;;4332026;28;656489;-64
2022/03/23 00:18:38;;;;;;;52.43;21.33;;;3.30;1.00;;;;;;4353108;28;657653;-64
2022/03/23 00:21:26;;;;;;;66.40;25.20;;;3.20;1.00;;;;;;4333170;28;656377;-64
2022/03/23 00:24:15;;;;;;;50.30;19.33;;;3.30;1.00;;;;;;4348869;28;657903;-64
2022/03/23 00:27:02;;;;;;;48.80;16.40;;;3.20;1.00;;;;;;4327324;28;657618;-64
2022/03/23 00:29:50;;;;;;;42.37;16.27;;;3.20;1.00;;;;;;4345082;28;656543;-65
2022/03/23 00:32:38;;;;;;;56.83;19.63;;;3.30;1.00;;;;;;4341805;28;658362;-65
2022/03/23 00:35:25;;;;;;;57.53;21.73;;;3.30;1.00;;;;;;4333772;28;656421;-65
2022/03/23 00:38:13;;;;;;;70.43;24.47;;;3.30;1.00;;;;;;4351193;28;657883;-65
2022/03/23 00:41:03;;;;;;;89.57;31.63;;;3.30;1.00;;;;;;4330863;28;656462;-65
2022/03/23 00:43:50;;;;;;;86.93;31.33;;;3.20;1.00;;;;;;4333858;28;656966;-65
2022/03/23 00:46:38;;;;;;;100.77;36.20;;;3.20;1.00;;;;;;4348568;28;658012;-64
2022/03/23 00:49:25;;;;;;;126.13;42.20;;;3.10;1.00;;;;;;4333627;28;658193;-65
2022/03/23 00:52:13;;;;;;;141.80;51.40;;;3.00;1.00;;;;;;4349607;28;658712;-64
2022/03/23 00:55:00;;;;;;;131.53;47.90;;;2.90;1.00;;;;;;4333317;28;657856;-65
2022/03/23 00:57:49;;;;;;;108.27;40.83;;;2.90;1.00;;;;;;4347936;28;658573;-65
2022/03/23 01:00:37;;;;;;;96.23;39.00;;;2.80;1.00;;;;;;4325571;28;657326;-65
2022/03/23 01:03:24;;;;;;;87.73;34.50;;;2.70;1.00;;;;;;4356984;28;656602;-65
2022/03/23 01:06:12;;;;;;;79.43;32.40;;;2.70;1.00;;;;;;4330881;28;657590;-65
2022/03/23 01:08:59;;;;;;;85.53;31.33;;;2.60;1.00;;;;;;4353596;28;656677;-64
2022/03/23 01:11:47;;;;;;;79.23;30.33;;;2.70;1.00;;;;;;4337393;28;656567;-65
2022/03/23 01:14:36;;;;;;;80.23;29.63;;;2.70;1.00;;;;;;4344906;28;656835;-65
2022/03/23 01:17:23;;;;;;;81.07;29.70;;;2.60;1.00;;;;;;4324139;28;657266;-64
2022/03/23 01:20:12;;;;;;;70.23;27.60;;;2.60;1.00;;;;;;4330782;28;656422;-65
2022/03/23 01:22:59;;;;;;;70.33;27.27;;;2.50;1.00;;;;;;4354370;28;657265;-65
2022/03/23 01:25:47;;;;;;;71.37;25.93;;;2.40;1.00;;;;;;4332989;28;657784;-65
2022/03/23 01:28:34;;;;;;;57.95;22.45;;;2.40;1.00;;;;;;4349185;28;656649;-65
2022/03/23 01:31:23;;;;;;;56.53;23.10;;;2.40;1.00;;;;;;4334665;28;657377;-65
2022/03/23 01:34:11;;;;;;;49.00;21.00;;;2.40;1.00;;;;;;4336593;28;657339;-65
2022/03/23 01:36:58;;;;;;;57.70;22.60;;;2.30;1.00;;;;;;4357925;28;657978;-65
2022/03/23 01:39:45;;;;;;;50.20;20.67;;;2.30;1.00;;;;;;4335775;28;656380;-65
2022/03/23 01:42:33;;;;;;;44.13;18.87;;;2.40;1.00;;;;;;4353604;28;658133;-65
2022/03/23 01:45:20;;;;;;;41.90;16.20;;;2.40;1.00;;;;;;4332248;28;656650;-65
2022/03/23 01:48:09;;;;;;;48.50;18.30;;;2.30;1.00;;;;;;4353130;28;657733;-64
2022/03/23 01:50:57;;;;;;;60.03;19.70;;;2.30;1.00;;;;;;4331766;28;656661;-64
2022/03/23 01:53:44;;;;;;;43.63;16.73;;;2.30;1.00;;;;;;4345780;28;656856;-65
2022/03/23 01:56:31;;;;;;;44.07;16.80;;;2.20;1.00;;;;;;4324717;28;656458;-64
2022/03/23 01:59:19;;;;;;;42.23;16.77;;;2.20;1.00;;;;;;4348065;28;656781;-64
2022/03/23 02:02:08;;;;;;;40.13;17.00;;;2.20;1.00;;;;;;4331758;28;657898;-65
2022/03/23 02:04:57;;;;;;;48.30;16.77;;;2.20;1.00;;;;;;4331193;28;656655;-65
2022/03/23 02:07:44;;;;;;;48.80;20.00;;;2.10;1.00;;;;;;4353143;28;657034;-65
2022/03/23 02:10:32;;;;;;;102.97;40.73;;;2.00;1.00;;;;;;4326005;28;656429;-65
2022/03/23 02:13:19;;;;;;;151.82;57.78;;;1.90;1.00;;;;;;4351964;28;657494;-64
2022/03/23 02:16:09;;;;;;;111.00;41.90;;;1.90;1.00;;;;;;4329205;28;657691;-65
2022/03/23 02:18:56;;;;;;;94.27;36.33;;;1.90;1.00;;;;;;4333171;28;658510;-65
2022/03/23 02:21:45;;;;;;;89.00;35.07;;;1.80;1.00;;;;;;4340543;28;657736;-65
2022/03/23 02:24:33;;;;;;;71.43;29.00;;;1.70;1.00;;;;;;4326990;28;657340;-64
2022/03/23 02:27:20;;;;;;;69.65;27.48;;;1.70;1.00;;;;;;4332780;28;657488;-65
2022/03/23 02:30:09;;;;;;;81.30;31.83;;;1.70;1.00;;;;;;4354224;28;657642;-64
2022/03/23 02:32:56;;;;;;;129.10;46.28;;;1.70;1.00;;;;;;4328563;28;656521;-65
2022/03/23 02:35:44;;;;;;;109.00;39.40;;;1.60;1.00;;;;;;4345770;28;657814;-65
2022/03/23 02:38:33;;;;;;;79.88;30.02;;;1.60;1.00;;;;;;4326090;28;657776;-64
2022/03/23 02:41:20;;;;;;;62.03;25.88;;;1.50;1.00;;;;;;4337393;28;657290;-64
2022/03/23 02:44:08;;;;;;;67.00;26.63;;;1.50;1.00;;;;;;4350934;28;657646;-65
2022/03/23 02:46:56;;;;;;;45.20;18.07;;;1.50;1.00;;;;;;4329237;28;656416;-65
2022/03/23 02:49:44;;;;;;;41.43;15.70;;;1.50;1.00;;;;;;4345791;28;657947;-64
2022/03/23 02:52:31;;;;;;;40.10;15.90;;;1.50;1.00;;;;;;4336643;28;656887;-64
2022/03/23 03:04:42;;;;;;;178.77;41.43;;;1.30;1.00;;;;;;4329128;28;657180;-65
2022/03/23 03:08:44;;;;;;;192.20;45.87;;;1.40;1.00;;;;;;4346674;28;657677;-65
2022/03/23 03:10:40;;;;;;;87.80;26.20;;;1.40;1.00;;;;;;4330326;28;657842;-65
2022/03/23 03:13:29;;;;;;;86.53;26.57;;;1.30;1.00;;;;;;4332528;28;657673;-64
2022/03/23 03:16:16;;;;;;;116.27;35.07;;;1.30;1.00;;;;;;4329635;28;656616;-65
2022/03/23 03:19:05;;;;;;;69.17;21.50;;;1.40;1.00;;;;;;4353924;28;658300;-65
2022/03/23 03:21:53;;;;;;;166.40;44.00;;;1.50;1.00;;;;;;4335000;28;657218;-65
2022/03/23 03:24:40;;;;;;;59.23;21.33;;;1.50;1.00;;;;;;4347667;28;657415;-65
2022/03/23 03:27:31;;;;;;;53.37;19.83;;;1.50;1.00;;;;;;4353043;28;657981;-65
2022/03/23 03:30:19;;;;;;;57.77;22.47;;;1.50;1.00;;;;;;4334101;28;657059;-65
2022/03/23 03:33:06;;;;;;;110.00;33.53;;;1.50;1.00;;;;;;4331814;28;656665;-65
2022/03/23 03:35:54;;;;;;;113.13;34.13;;;1.30;1.00;;;;;;4348597;28;658418;-65
2022/03/23 03:38:41;;;;;;;105.07;33.77;;;1.20;1.00;;;;;;4334383;28;657679;-64
2022/03/23 03:41:29;;;;;;;81.03;27.30;;;1.20;1.00;;;;;;4352154;28;658180;-65
2022/03/23 03:44:17;;;;;;;68.63;25.17;;;1.10;1.00;;;;;;4336539;28;657114;-65
2022/03/23 03:47:06;;;;;;;98.93;29.83;;;1.10;1.00;;;;;;4347039;28;656717;-65
2022/03/23 03:49:54;;;;;;;70.18;25.48;;;1.10;1.00;;;;;;4353452;28;657952;-65
2022/03/23 03:52:41;;;;;;;73.07;25.47;;;1.10;1.00;;;;;;4333682;28;656474;-65
2022/03/23 03:55:28;;;;;;;70.72;25.48;;;1.10;1.00;;;;;;4354815;28;657970;-65
2022/03/23 03:58:17;;;;;;;69.87;27.17;;;1.20;1.00;;;;;;4338959;28;656660;-65
2022/03/23 04:01:06;;;;;;;123.40;39.87;;;1.20;1.00;;;;;;4353401;28;656075;-65
2022/03/23 04:03:53;;;;;;;69.23;28.00;;;1.30;1.00;;;;;;4327146;28;658483;-65
2022/03/23 04:06:40;;;;;;;73.53;28.57;;;1.30;1.00;;;;;;4331305;28;656855;-65
2022/03/23 04:09:28;;;;;;;76.93;31.13;;;1.30;1.00;;;;;;4351572;28;658623;-65
2022/03/23 04:12:16;;;;;;;95.63;32.70;;;1.20;1.00;;;;;;4334792;28;656891;-65
2022/03/23 04:15:03;;;;;;;89.43;31.10;;;1.00;12.00;;;;;;4354888;28;658254;-65
2022/03/23 04:17:53;;;;;;;85.37;33.97;;;1.00;99.90;;;;;;4327757;28;657529;-65
2022/03/23 04:20:40;;;;;;;76.43;30.52;;;0.80;99.90;;;;;;4338537;28;657626;-65
2022/03/23 04:23:28;;;;;;;82.77;30.97;;;0.90;99.90;;;;;;4350720;28;658946;-65
2022/03/23 04:26:15;;;;;;;83.10;31.43;;;0.90;99.90;;;;;;4335889;28;657455;-65
2022/03/23 04:29:26;;;;;;;76.13;27.40;;;1.00;99.90;;;;;;4352194;28;658665;-65
2022/03/23 04:32:13;;;;;;;71.95;26.60;;;0.90;99.90;;;;;;4332803;28;658406;-65
2022/03/23 04:35:04;;;;;;;75.07;29.63;;;0.90;99.90;;;;;;4334468;28;657524;-65
2022/03/23 04:37:52;;;;;;;115.67;39.30;;;0.80;99.90;;;;;;4328274;28;657472;-65
2022/03/23 04:40:41;;;;;;;132.33;44.97;;;0.80;99.90;;;;;;4347681;28;659302;-65
2022/03/23 04:43:28;;;;;;;130.23;42.30;;;0.80;99.90;;;;;;4333242;28;659855;-65
2022/03/23 04:46:15;;;;;;;111.70;38.03;;;0.70;99.90;;;;;;4328391;28;658581;-65
2022/03/23 04:49:03;;;;;;;121.00;38.70;;;0.60;99.90;;;;;;4355688;28;659623;-65
2022/03/23 04:51:52;;;;;;;109.90;35.13;;;0.60;1.00;;;;;;4326618;28;658711;-65
2022/03/23 04:54:39;;;;;;;102.00;31.73;;;0.70;99.90;;;;;;4349596;28;657677;-65
2022/03/23 04:57:27;;;;;;;82.43;29.77;;;0.80;1.00;;;;;;4329473;28;658717;-65
2022/03/23 05:00:16;;;;;;;74.80;27.07;;;0.90;99.90;;;;;;4347168;28;656408;-65
2022/03/23 05:03:04;;;;;;;73.40;26.37;;;1.00;99.90;;;;;;4322127;28;658527;-65
2022/03/23 05:05:52;;;;;;;62.43;22.27;;;1.10;99.90;;;;;;4335301;28;658136;-65
2022/03/23 05:08:41;;;;;;;72.50;24.97;;;1.20;99.90;;;;;;4349877;28;657353;-65
2022/03/23 05:11:28;;;;;;;69.67;25.03;;;1.30;99.90;;;;;;4329258;28;658972;-65
2022/03/23 05:14:16;;;;;;;49.50;19.50;;;1.40;99.90;;;;;;4330467;28;657625;-65
2022/03/23 05:17:03;;;;;;;53.33;19.53;;;1.40;99.90;;;;;;4362455;28;658317;-65
2022/03/23 05:19:51;;;;;;;70.17;24.33;;;1.50;99.90;;;;;;4334438;28;657592;-65
2022/03/23 05:22:38;;;;;;;77.83;24.67;;;1.70;99.90;;;;;;4343551;28;658296;-65
2022/03/23 05:25:27;;;;;;;343.37;54.43;;;1.70;99.90;;;;;;4335738;28;657469;-65
2022/03/23 05:28:15;;;;;;;617.17;163.83;;;1.80;99.90;;;;;;4344795;28;658630;-65
2022/03/23 05:31:03;;;;;;;314.13;89.20;;;1.90;99.90;;;;;;4348982;28;660066;-65
2022/03/23 05:33:51;;;;;;;184.07;56.73;;;2.00;99.90;;;;;;4331645;28;658450;-65
2022/03/23 05:36:38;;;;;;;106.93;34.47;;;2.10;99.90;;;;;;4353789;28;661050;-65
2022/03/23 05:39:25;;;;;;;83.85;30.52;;;2.10;99.90;;;;;;4326111;28;659065;-65
2022/03/23 05:42:14;;;;;;;102.40;35.90;;;2.30;99.90;;;;;;4353771;28;658659;-66
2022/03/23 05:45:02;;;;;;;68.50;25.63;;;2.40;90.40;;;;;;4327129;28;659661;-65
2022/03/23 05:47:52;;;;;;;43.67;16.87;;;2.60;25.90;;;;;;4343622;28;658148;-65
2022/03/23 05:50:40;;;;;;;40.23;16.30;;;2.80;1.00;;;;;;4311199;28;658434;-65
2022/03/23 05:53:28;;;;;;;45.93;16.87;;;3.10;1.00;;;;;;4353331;28;657416;-65
2022/03/23 05:56:16;;;;;;;42.67;16.95;;;3.30;1.00;;;;;;4327761;28;656327;-65
2022/03/23 05:59:04;;;;;;;38.50;16.10;;;3.50;1.00;;;;;;4352578;28;657644;-65
2022/03/23 06:01:52;;;;;;;39.70;15.07;;;3.70;1.00;;;;;;4328101;28;656684;-65
2022/03/23 06:04:40;;;;;;;55.97;20.37;;;4.00;1.00;;;;;;4345444;28;656332;-65
2022/03/23 06:07:28;;;;;;;99.53;33.87;;;4.20;1.00;;;;;;4324043;28;657601;-65
2022/03/23 06:10:17;;;;;;;114.90;40.13;;;4.40;1.00;;;;;;4341807;28;656490;-65
2022/03/23 06:13:05;;;;;;;55.47;20.37;;;4.50;1.00;;;;;;4355510;28;659174;-65
2022/03/23 06:15:54;;;;;;;43.43;18.27;;;4.70;1.00;;;;;;4334081;28;657465;-65
2022/03/23 06:18:42;;;;;;;37.03;15.43;;;5.00;1.00;;;;;;4329662;28;656222;-65
2022/03/23 06:21:29;;;;;;;54.17;19.90;;;5.30;1.00;;;;;;4351979;28;656980;-65
2022/03/23 06:24:17;;;;;;;38.13;16.37;;;5.60;1.00;;;;;;4327847;28;656370;-65
2022/03/23 06:27:05;;;;;;;32.23;14.00;;;5.90;1.00;;;;;;4353253;28;656543;-65
2022/03/23 06:29:52;;;;;;;33.13;15.27;;;6.20;1.00;;;;;;4328729;28;657925;-65
2022/03/23 06:32:41;;;;;;;31.53;14.13;;;6.40;1.00;;;;;;4355016;28;656827;-65
2022/03/23 06:35:29;;;;;;;27.77;12.90;;;6.60;1.00;;;;;;4323985;28;657872;-65
2022/03/23 06:38:17;;;;;;;25.23;12.57;;;6.80;1.00;;;;;;4325633;28;657161;-65
2022/03/23 06:41:04;;;;;;;29.65;13.35;;;6.90;1.00;;;;;;4352389;28;658392;-65
2022/03/23 06:43:52;;;;;;;30.30;13.03;;;7.20;1.00;;;;;;4329492;28;657062;-63
2022/03/23 06:46:39;;;;;;;30.43;14.63;;;7.50;1.00;;;;;;4346261;28;656863;-65
2022/03/23 06:49:28;;;;;;;38.83;15.17;;;7.70;1.00;;;;;;4333081;28;656834;-66
2022/03/23 06:52:17;;;;;;;35.43;15.10;;;8.00;1.00;;;;;;4338568;28;656782;-63
2022/03/23 06:55:06;;;;;;;36.50;16.23;;;8.30;1.00;;;;;;4350269;28;656902;-66
2022/03/23 06:57:53;;;;;;;36.07;15.63;;;8.60;1.00;;;;;;4329548;28;657591;-63
2022/03/23 07:00:41;;;;;;;41.37;17.43;;;8.90;1.00;;;;;;4329183;28;656856;-65
2022/03/23 07:03:28;;;;;;;38.80;16.83;;;9.10;1.00;;;;;;4354266;28;657686;-65
2022/03/23 07:06:17;;;;;;;33.67;15.57;;;9.30;1.00;;;;;;4330239;28;657130;-66
2022/03/23 07:12:12;;;;;;;42.67;16.77;;;9.70;1.00;;;;;;4312505;28;656776;-64
2022/03/23 07:14:59;;;;;;;42.97;19.27;;;9.90;1.00;;;;;;4360406;28;656082;-66
2022/03/23 07:17:47;;;;;;;41.90;19.63;;;10.20;1.00;;;;;;4332635;28;657183;-66
2022/03/23 07:20:35;;;;;;;34.53;16.57;;;10.30;1.00;;;;;;4356965;28;657798;-65
2022/03/23 07:23:23;;;;;;;31.53;16.27;;;10.50;1.00;;;;;;4325443;28;658585;-66
2022/03/23 07:26:11;;;;;;;39.13;20.10;;;10.70;1.00;;;;;;4330267;28;657253;-66
2022/03/23 07:28:58;;;;;;;49.37;21.47;;;10.90;1.00;;;;;;4349703;28;657472;-65
2022/03/23 07:31:46;;;;;;;52.90;22.47;;;11.10;1.00;;;;;;4324216;28;658244;-65
2022/03/23 07:34:34;;;;;;;46.93;23.93;;;11.30;1.00;;;;;;4348177;28;658173;-65
2022/03/23 07:37:21;;;;;;;54.70;24.07;;;11.50;1.00;;;;;;4332180;28;658869;-65
2022/03/23 07:40:12;;;;;;;52.67;20.77;;;11.70;1.00;;;;;;4350372;28;658505;-66
2022/03/23 07:43:00;;;;;;;43.87;20.57;;;11.90;1.00;;;;;;4325515;28;657707;-66
2022/03/23 07:45:48;;;;;;;37.87;18.10;;;12.10;1.00;;;;;;4333880;28;657841;-65
2022/03/23 07:48:36;;;;;;;33.45;17.33;;;12.40;1.00;;;;;;4335620;28;657501;-66
2022/03/23 07:51:23;;;;;;;34.07;15.43;;;12.70;1.00;;;;;;4353703;28;658536;-66
2022/03/23 07:54:12;;;;;;;33.50;15.80;;;13.00;1.00;;;;;;4331028;28;658510;-66
2022/03/23 07:57:01;;;;;;;34.87;14.73;;;13.30;1.00;;;;;;4344749;28;657514;-66
2022/03/23 07:59:48;;;;;;;31.90;14.13;;;13.60;1.00;;;;;;4330696;28;658466;-66
2022/03/23 08:02:36;;;;;;;28.80;13.70;;;13.90;1.00;;;;;;4332138;28;658330;-66
2022/03/23 08:05:24;;;;;;;38.33;16.10;;;14.20;1.00;;;;;;4353577;28;658783;-66
2022/03/23 08:08:11;;;;;;;24.50;12.17;;;14.60;1.00;;;;;;4327576;28;658370;-66
2022/03/23 08:10:59;;;;;;;28.30;13.43;;;14.80;1.00;;;;;;4353923;28;658154;-63
2022/03/23 08:13:47;;;;;;;23.27;12.53;;;15.10;1.00;;;;;;4333358;28;657807;-66
2022/03/23 08:16:36;;;;;;;21.90;9.80;;;15.20;1.00;;;;;;4345935;28;657822;-66
2022/03/23 08:19:23;;;;;;;24.93;11.60;;;15.40;1.00;;;;;;4358533;28;656911;-66
2022/03/23 08:22:11;;;;;;;30.20;13.20;;;15.50;1.00;;;;;;4328291;28;657685;-66
2022/03/23 08:24:59;;;;;;;34.53;15.13;;;15.80;1.00;;;;;;4351269;28;658695;-66
2022/03/23 08:27:46;;;;;;;33.60;14.83;;;16.00;1.00;;;;;;4335046;28;657561;-66
2022/03/23 08:30:35;;;;;;;31.23;14.83;;;16.00;1.00;;;;;;4352941;28;658714;-66
2022/03/23 08:33:25;;;;;;;29.43;14.17;;;16.20;1.00;;;;;;4336388;28;659163;-66
2022/03/23 08:36:12;;;;;;;33.73;15.83;;;16.20;1.00;;;;;;4325730;28;658767;-66
2022/03/23 08:39:00;;;;;;;33.07;15.57;;;16.30;1.00;;;;;;4360195;28;658084;-66
2022/03/23 08:41:48;;;;;;;38.30;16.73;;;16.50;1.00;;;;;;4333499;28;657607;-66
2022/03/23 08:44:36;;;;;;;38.50;17.73;;;16.60;1.00;;;;;;4339307;28;658070;-66
2022/03/23 08:47:27;;;;;;;41.00;17.03;;;16.70;1.00;;;;;;4376260;28;659095;-66
2022/03/23 08:50:15;;;;;;;45.93;17.13;;;16.70;1.00;;;;;;4330921;28;657809;-65
2022/03/23 08:53:04;;;;;;;25.50;11.20;;;16.90;1.00;;;;;;4324602;28;659158;-65
2022/03/23 08:55:51;;;;;;;40.15;14.40;;;17.10;1.00;;;;;;4327472;28;657963;-65
2022/03/23 08:58:39;;;;;;;24.20;10.33;;;17.30;1.00;;;;;;4346066;28;657412;-65
2022/03/23 09:01:26;;;;;;;30.93;12.23;;;17.50;1.00;;;;;;4333956;28;657434;-66
2022/03/23 09:04:15;;;;;;;26.60;10.60;;;17.60;1.00;;;;;;4353966;28;657767;-66
2022/03/23 09:07:03;;;;;;;31.57;13.07;;;17.70;1.00;;;;;;4327198;28;657975;-65
2022/03/23 09:09:51;;;;;;;30.80;13.50;;;17.90;1.00;;;;;;4335237;28;657811;-66
2022/03/23 09:12:38;;;;;;;29.50;12.20;;;18.30;1.00;;;;;;4355754;28;659040;-66
2022/03/23 09:15:26;;;;;;;23.47;11.63;;;18.40;1.00;;;;;;4335702;28;657747;-65
2022/03/23 09:18:13;;;;;;;28.03;11.23;;;18.70;1.00;;;;;;4346935;28;658511;-66
2022/03/23 09:21:02;;;;;;;23.40;9.83;;;19.10;1.00;;;;;;4333677;28;657585;-66
2022/03/23 09:23:51;;;;;;;24.37;9.90;;;19.40;1.00;;;;;;4370758;28;656584;-66
2022/03/23 09:26:39;;;;;;;21.00;8.80;;;19.60;1.00;;;;;;4353860;28;657984;-66
2022/03/23 09:29:26;;;;;;;21.67;9.77;;;19.70;1.00;;;;;;4336086;28;656422;-66
2022/03/23 09:32:14;;;;;;;24.73;10.83;;;19.80;1.00;;;;;;4346626;28;657497;-66
2022/03/23 09:35:02;;;;;;;21.77;10.93;;;19.80;1.00;;;;;;4325698;28;658440;-66
2022/03/23 09:37:52;;;;;;;25.70;8.77;;;19.90;1.00;;;;;;4347303;28;658242;-67
2022/03/23 09:40:40;;;;;;;28.63;12.90;;;20.20;1.00;;;;;;4321055;28;656445;-66
2022/03/23 09:43:28;;;;;;;23.20;11.10;;;20.40;1.00;;;;;;4335809;28;658632;-66
2022/03/23 09:46:16;;;;;;;33.93;14.10;;;20.70;1.00;;;;;;4327709;28;657694;-66
2022/03/23 09:49:04;;;;;;;33.57;13.30;;;20.50;1.00;;;;;;4356972;28;658406;-66
2022/03/23 09:51:53;;;;;;;35.43;15.13;;;20.30;1.00;;;;;;4325313;28;658962;-66
2022/03/23 09:54:42;;;;;;;34.77;13.10;;;20.30;1.00;;;;;;4326024;28;657790;-65
2022/03/23 09:57:30;;;;;;;29.50;14.23;;;20.40;1.00;;;;;;4342758;28;657939;-66
2022/03/23 10:00:52;;;;;;;35.07;16.33;;;20.40;1.00;;;;;;4324889;28;658752;-66
2022/03/23 10:04:07;;;;;;;28.00;12.83;;;20.40;1.00;;;;;;4324439;28;658066;-66
2022/03/23 10:07:07;;;;;;;33.92;14.65;;;20.70;1.00;;;;;;4326993;28;657842;-66
2022/03/23 10:10:30;;;;;;;24.50;12.10;;;21.00;1.00;;;;;;4321510;28;658484;-66
2022/03/23 10:13:54;;;;;;;27.20;12.60;;;21.10;1.00;;;;;;4323311;28;658450;-66
2022/03/23 10:17:13;;;;;;;25.50;11.40;;;21.20;1.00;;;;;;4245931;29;658544;-66
2022/03/23 10:20:00;;;;;;;30.67;13.43;;;21.30;1.00;;;;;;4205231;29;657462;-66
2022/03/23 10:22:48;;;;;;;22.37;11.70;;;21.30;1.00;;;;;;4236496;29;659018;-66
2022/03/23 10:25:36;;;;;;;25.20;11.90;;;21.50;1.00;;;;;;4223135;29;657599;-66
2022/03/23 10:28:24;;;;;;;23.97;12.60;;;21.30;1.00;;;;;;4241247;29;659138;-66
2022/03/23 10:31:17;;;;;;;27.73;11.73;;;21.50;1.00;;;;;;4222968;29;657499;-66
2022/03/23 10:34:08;;;;;;;20.40;10.00;;;21.70;1.00;;;;;;4236490;29;657699;-66
2022/03/23 10:36:56;;;;;;;11.53;5.90;;;21.80;1.00;;;;;;4221043;29;657600;-66
2022/03/23 10:39:44;;;;;;;17.23;9.17;;;21.70;1.00;;;;;;4233996;29;658223;-66
2022/03/23 10:42:33;;;;;;;18.43;9.27;;;21.70;1.00;;;;;;4223285;29;656465;-66
2022/03/23 10:45:21;;;;;;;17.03;7.87;;;22.00;1.00;;;;;;4224853;29;656609;-65
2022/03/23 10:48:10;;;;;;;20.77;10.00;;;21.90;1.00;;;;;;4241876;29;657380;-66
2022/03/23 10:50:59;;;;;;;23.60;9.77;;;21.60;1.00;;;;;;4217207;29;659112;-66
2022/03/23 10:53:46;;;;;;;21.87;9.37;;;21.80;1.00;;;;;;4223447;29;656500;-66
2022/03/23 10:56:37;;;;;;;23.67;10.93;;;21.80;1.00;;;;;;4244903;29;657527;-66
2022/03/23 10:59:26;;;;;;;22.73;10.20;;;22.10;1.00;;;;;;4280152;28;657767;-66
2022/03/23 11:02:13;;;;;;;17.77;9.37;;;22.40;99.90;;;;;;4344086;28;658912;-66
2022/03/23 11:05:01;;;;;;;19.07;9.93;;;22.50;99.90;;;;;;4330054;28;657741;-66
2022/03/23 11:07:50;;;;;;;11.73;6.60;;;22.50;99.90;;;;;;4343497;28;658228;-66
2022/03/23 11:16:45;;;;;;;11.47;6.13;;;22.40;99.90;;;;;;4282761;29;658054;-66
2022/03/23 11:19:33;;;;;;;13.93;6.87;;;22.50;99.90;;;;;;4283705;29;658962;-66
2022/03/23 11:22:21;;;;;;;9.77;5.77;;;22.50;99.90;;;;;;4284203;29;657979;-66
2022/03/23 11:25:09;;;;;;;12.13;6.00;;;22.70;99.90;;;;;;4303861;29;657611;-66
2022/03/23 11:27:57;;;;;;;14.17;7.93;;;23.20;99.90;;;;;;4287650;29;658831;-66
2022/03/23 11:30:44;;;;;;;12.97;7.40;;;23.40;1.00;;;;;;4297767;29;658611;-65
2022/03/23 11:33:34;;;;;;;10.03;5.83;;;23.40;1.00;;;;;;4284939;29;656692;-66
2022/03/23 11:36:22;;;;;;;11.67;6.00;;;23.10;1.00;;;;;;4287612;29;656616;-66
2022/03/23 11:39:10;;;;;;;8.93;5.63;;;22.70;99.90;;;;;;4307769;29;656543;-66
2022/03/23 11:41:59;;;;;;;11.07;6.30;;;22.60;99.90;;;;;;4283925;29;658144;-66
2022/03/23 11:44:47;;;;;;;12.10;5.80;;;22.70;99.90;;;;;;4290768;29;657998;-66
2022/03/23 11:47:36;;;;;;;12.87;4.87;;;23.30;99.90;;;;;;4309063;29;657423;-66
2022/03/23 11:50:26;;;;;;;11.30;5.33;;;23.20;99.90;;;;;;4283487;29;658092;-66
2022/03/23 11:53:20;;;;;;;13.73;5.50;;;23.20;99.90;;;;;;4280778;29;658353;-65
2022/03/23 11:56:08;;;;;;;9.30;5.47;;;22.90;99.90;;;;;;4262915;29;658187;-66
2022/03/23 11:58:57;;;;;;;9.40;5.77;;;23.30;99.90;;;;;;4336392;28;658208;-66
2022/03/23 12:01:44;;;;;;;11.47;5.47;;;23.60;99.90;;;;;;4354185;28;656564;-66
2022/03/23 12:04:32;;;;;;;9.20;4.50;;;24.10;99.90;;;;;;4335596;28;658958;-66
2022/03/23 12:07:19;;;;;;;9.30;4.73;;;24.40;99.90;;;;;;4349909;28;656356;-66
2022/03/23 12:10:20;;;;;;;10.23;4.60;;;24.80;99.90;;;;;;4328202;28;656615;-66
2022/03/23 12:13:13;;;;;;;9.53;4.90;;;24.90;99.90;;;;;;4308313;28;658713;-66
2022/03/23 12:16:06;;;;;;;7.00;4.67;;;24.20;99.90;;;;;;4307109;28;656521;-66
2022/03/23 12:18:59;;;;;;;10.20;4.90;;;23.70;99.90;;;;;;4330778;28;656840;-66
2022/03/23 12:21:51;;;;;;;7.03;3.87;;;23.70;99.90;;;;;;4333687;28;657453;-66
2022/03/23 12:24:43;;;;;;;11.17;5.00;;;24.00;99.90;;;;;;4332135;28;657403;-66
2022/03/23 12:27:34;;;;;;;7.20;4.10;;;24.10;99.90;;;;;;4305534;28;657601;-66
2022/03/23 12:30:33;;;;;;;6.43;3.90;;;24.40;99.90;;;;;;4331538;28;656545;-66
2022/03/23 12:33:22;;;;;;;9.03;4.33;;;24.60;99.90;;;;;;4310934;28;656857;-66
2022/03/23 12:36:09;;;;;;;7.07;3.73;;;24.30;99.90;;;;;;4350849;28;656242;-66
2022/03/23 12:39:00;;;;;;;7.97;4.20;;;24.70;99.90;;;;;;4337363;28;656505;-66
2022/03/23 12:41:47;;;;;;;6.37;4.00;;;24.60;99.90;;;;;;4341097;28;657334;-66
2022/03/23 12:44:36;;;;;;;6.50;4.10;;;24.70;99.90;;;;;;4346533;28;656259;-66
2022/03/23 12:47:27;;;;;;;7.33;4.07;;;24.90;99.90;;;;;;4354797;28;656641;-66
2022/03/23 12:59:36;;;;;;;7.73;4.43;;;24.40;99.90;;;;;;4331917;28;658046;-66
2022/03/23 13:02:31;;;;;;;9.40;4.73;;;25.00;99.90;;;;;;4333714;28;658281;-66
2022/03/23 13:05:22;;;;;;;12.20;5.10;;;25.40;99.90;;;;;;4325295;28;656245;-66
2022/03/23 13:08:38;;;;;;;13.57;7.23;;;25.30;99.90;;;;;;4321653;28;657731;-66
2022/03/23 13:11:28;;;;;;;14.93;7.10;;;25.30;99.90;;;;;;4282021;28;658175;-66
2022/03/23 13:14:16;;;;;;;11.50;6.23;;;25.60;99.90;;;;;;4327138;28;657502;-66
2022/03/23 13:17:04;;;;;;;11.00;6.40;;;25.30;99.90;;;;;;4345190;28;657275;-66
2022/03/23 13:19:56;;;;;;;14.47;6.33;;;25.40;99.90;;;;;;4335855;28;657722;-65
2022/03/23 13:22:45;;;;;;;14.33;6.57;;;24.90;99.90;;;;;;4328724;28;658218;-66
2022/03/23 13:25:35;;;;;;;14.40;6.97;;;25.20;99.90;;;;;;4320933;28;658515;-66
2022/03/23 13:28:24;;;;;;;15.33;7.50;;;24.90;99.90;;;;;;4322923;28;658831;-66
2022/03/23 13:31:12;;;;;;;12.97;7.13;;;24.30;99.90;;;;;;4332921;28;657444;-66
2022/03/23 13:34:03;;;;;;;20.30;7.87;;;24.40;99.90;;;;;;4344408;28;658190;-65
2022/03/23 13:36:52;;;;;;;12.77;6.77;;;24.30;99.90;;;;;;4332801;28;657877;-66
2022/03/23 13:39:47;;;;;;;15.60;7.20;;;24.80;99.90;;;;;;4354898;28;657446;-66
2022/03/23 13:45:40;;;;;;;16.07;8.30;;;24.90;99.90;;;;;;4327561;28;658239;-66
2022/03/23 13:48:30;;;;;;;13.80;7.30;;;25.30;99.90;;;;;;4345046;28;659579;-66
2022/03/23 13:51:19;;;;;;;15.83;8.30;;;25.70;99.90;;;;;;4321862;28;658518;-66
2022/03/23 13:54:07;;;;;;;17.40;8.47;;;25.20;99.90;;;;;;4325040;28;657475;-65
2022/03/23 13:56:56;;;;;;;17.80;8.67;;;25.20;99.90;;;;;;4352356;28;658405;-65
2022/03/23 13:59:44;;;;;;;24.67;9.47;;;24.80;99.90;;;;;;4323728;28;658190;-66
2022/03/23 14:02:33;;;;;;;19.97;7.93;;;24.90;99.90;;;;;;4331370;28;658466;-65
2022/03/23 14:05:21;;;;;;;12.53;6.60;;;25.20;99.90;;;;;;4327005;28;657854;-65
2022/03/23 14:08:08;;;;;;;15.77;6.70;;;25.00;99.90;;;;;;4352699;28;658566;-66
2022/03/23 14:10:55;;;;;;;11.67;6.70;;;25.20;99.90;;;;;;4335957;28;657850;-66
2022/03/23 14:13:51;;;;;;;9.63;5.97;;;25.50;99.90;;;;;;4348965;28;657847;-66
2022/03/23 14:16:39;;;;;;;10.87;6.30;;;25.80;99.90;;;;;;4331838;28;656459;-65
2022/03/23 14:19:28;;;;;;;10.07;5.50;;;25.50;99.90;;;;;;4333442;28;657902;-65
2022/03/23 14:22:16;;;;;;;8.63;4.70;;;25.50;99.90;;;;;;4331245;28;657991;-66
2022/03/23 14:25:04;;;;;;;9.17;5.10;;;25.20;99.90;;;;;;4347147;28;657599;-65
2022/03/23 14:27:54;;;;;;;16.20;5.67;;;26.30;99.90;;;;;;4324791;28;656506;-65
2022/03/23 14:30:47;;;;;;;9.20;4.90;;;26.00;99.90;;;;;;4324955;28;657658;-66
2022/03/23 14:33:35;;;;;;;11.20;5.60;;;26.40;99.90;;;;;;4325473;28;656945;-65
2022/03/23 14:36:24;;;;;;;9.90;5.30;;;26.70;99.90;;;;;;4320891;28;658784;-66
2022/03/23 14:39:21;;;;;;;9.10;5.13;;;26.70;99.90;;;;;;4334063;28;656841;-66
2022/03/23 14:42:10;;;;;;;10.90;4.20;;;27.40;99.90;;;;;;4332931;28;657815;-65
2022/03/23 14:44:59;;;;;;;8.03;4.77;;;27.90;99.90;;;;;;4330894;28;658853;-65
2022/03/23 14:47:48;;;;;;;8.33;3.77;;;27.40;99.90;;;;;;4338624;28;656530;-65
2022/03/23 14:50:35;;;;;;;6.43;4.00;;;27.50;99.90;;;;;;4335636;28;658852;-65
2022/03/23 14:53:25;;;;;;;7.93;3.53;;;27.90;99.90;;;;;;4356384;28;657544;-66